createdAt,value
2023-02-20T00:00:01.564Z,-10
2023-02-20T00:01:06.861Z,-9
2023-02-20T00:02:12.149Z,-8
2023-02-20T00:03:18.425Z,-10
2023-02-20T00:04:24.694Z,-10
2023-02-20T00:05:30.952Z,-10
2023-02-20T00:06:37.236Z,-9
2023-02-20T00:07:43.510Z,-7
2023-02-20T00:08:49.772Z,-7
2023-02-20T00:09:56.058Z,-9
2023-02-20T00:11:02.418Z,-9
2023-02-20T00:12:08.595Z,-10
2023-02-20T00:13:14.869Z,-9
2023-02-20T00:14:21.176Z,-8
2023-02-20T00:15:27.428Z,-8
2023-02-20T00:16:32.697Z,-6
2023-02-20T00:17:39.025Z,-8
2023-02-20T00:18:45.243Z,-8
2023-02-20T00:19:51.504Z,-8
2023-02-20T00:20:57.854Z,-7
2023-02-20T00:22:04.060Z,-5
2023-02-20T00:23:10.337Z,-7
2023-02-20T00:24:16.611Z,-7
2023-02-20T00:25:21.910Z,-6
2023-02-20T00:26:27.185Z,-8
2023-02-20T00:27:33.466Z,-6
2023-02-20T00:28:38.750Z,-6
2023-02-20T00:29:44.044Z,-5
2023-02-20T00:30:50.314Z,-6
2023-02-20T00:31:56.608Z,-4
2023-02-20T00:33:02.866Z,-8
2023-02-20T00:34:09.138Z,-8
2023-02-20T00:35:15.400Z,-9
2023-02-20T00:36:21.723Z,-9
2023-02-20T00:37:27.967Z,-10
2023-02-20T00:38:34.228Z,-10
2023-02-20T00:39:40.500Z,-10
2023-02-20T00:40:46.780Z,-9
2023-02-20T00:41:53.050Z,-9
2023-02-20T00:42:59.341Z,-8
2023-02-20T00:44:04.611Z,-10
2023-02-20T00:45:10.891Z,-8
2023-02-20T00:46:17.146Z,-8
2023-02-20T00:47:23.423Z,-8
2023-02-20T00:48:29.697Z,-8
2023-02-20T00:49:35.970Z,-9
2023-02-20T00:50:42.234Z,-9
2023-02-20T00:51:48.503Z,-7
2023-02-20T00:52:54.777Z,-8
2023-02-20T00:54:01.061Z,-8
2023-02-20T00:55:06.386Z,-8
2023-02-20T00:56:11.642Z,-9
2023-02-20T00:57:16.939Z,-8
2023-02-20T00:58:22.231Z,-8
2023-02-20T00:59:28.516Z,-8
2023-02-20T01:00:34.843Z,-6
2023-02-20T01:01:41.066Z,-8
2023-02-20T01:02:47.316Z,-7
2023-02-20T01:03:53.583Z,-7
2023-02-20T01:04:59.924Z,-6
2023-02-20T01:06:06.125Z,-5
2023-02-20T01:07:12.402Z,-7
2023-02-20T01:08:18.685Z,-9
2023-02-20T01:09:24.939Z,-7
2023-02-20T01:10:31.226Z,-8
2023-02-20T01:11:37.497Z,-7
2023-02-20T01:12:42.842Z,-8
2023-02-20T01:13:49.053Z,-8
2023-02-20T01:14:55.333Z,-8
2023-02-20T01:16:01.601Z,-7
2023-02-20T01:17:07.868Z,-9
2023-02-20T01:18:14.215Z,-8
2023-02-20T01:19:20.413Z,-6
2023-02-20T01:20:25.719Z,-7
2023-02-20T01:21:31.062Z,-9
2023-02-20T01:22:36.324Z,-7
2023-02-20T01:23:41.595Z,-7
2023-02-20T01:24:47.850Z,-7
2023-02-20T01:25:54.132Z,-6
2023-02-20T01:27:00.393Z,-9
2023-02-20T01:28:06.673Z,-9
2023-02-20T01:29:13.009Z,-8
2023-02-20T01:30:19.217Z,-8
2023-02-20T01:31:25.486Z,-9
2023-02-20T01:32:31.769Z,-7
2023-02-20T01:33:38.036Z,-6
2023-02-20T01:34:44.364Z,-8
2023-02-20T01:35:49.602Z,-8
2023-02-20T01:36:55.872Z,-8
2023-02-20T01:38:02.156Z,-9
2023-02-20T01:39:08.422Z,-7
2023-02-20T01:40:14.696Z,-8
2023-02-20T01:41:20.967Z,-9
2023-02-20T01:42:27.244Z,-9
2023-02-20T01:43:33.504Z,-9
2023-02-20T01:44:39.781Z,-8
2023-02-20T01:45:45.119Z,-8
2023-02-20T01:46:50.375Z,-6
2023-02-20T01:47:55.664Z,-6
2023-02-20T01:49:00.961Z,-8
2023-02-20T01:50:07.230Z,-7
2023-02-20T01:51:13.504Z,-9
2023-02-20T01:52:19.778Z,-9
2023-02-20T01:53:26.051Z,-9
2023-02-20T01:54:32.335Z,-6
2023-02-20T01:55:38.588Z,-7
2023-02-20T01:56:44.880Z,-7
2023-02-20T01:57:51.130Z,-7
2023-02-20T01:58:57.420Z,-9
2023-02-20T02:00:03.675Z,-9
2023-02-20T02:01:09.961Z,-10
2023-02-20T02:02:16.220Z,-8
2023-02-20T02:03:21.525Z,-8
2023-02-20T02:04:27.786Z,-8
2023-02-20T02:05:34.063Z,-8
2023-02-20T02:06:40.324Z,-9
2023-02-20T02:07:46.610Z,-9
2023-02-20T02:08:52.894Z,-10
2023-02-20T02:09:59.148Z,-9
2023-02-20T02:11:05.424Z,-9
2023-02-20T02:12:10.742Z,-9
2023-02-20T02:13:16.001Z,-9
2023-02-20T02:14:22.270Z,-7
2023-02-20T02:15:28.545Z,-8
2023-02-20T02:16:33.854Z,-8
2023-02-20T02:17:40.105Z,-8
2023-02-20T02:18:45.421Z,-9
2023-02-20T02:19:51.713Z,-8
2023-02-20T02:20:57.941Z,-7
2023-02-20T02:22:04.224Z,-8
2023-02-20T02:23:10.485Z,-9
2023-02-20T02:24:16.757Z,-8
2023-02-20T02:25:23.026Z,-9
2023-02-20T02:26:29.300Z,-8
2023-02-20T02:27:35.576Z,-8
2023-02-20T02:28:41.860Z,-9
2023-02-20T02:29:48.136Z,-7
2023-02-20T02:30:54.388Z,-8
2023-02-20T02:32:00.657Z,-8
2023-02-20T02:33:05.957Z,-7
2023-02-20T02:34:12.265Z,-8
2023-02-20T02:35:18.490Z,-8
2023-02-20T02:36:24.761Z,-5
2023-02-20T02:37:31.043Z,-8
2023-02-20T02:38:37.324Z,-6
2023-02-20T02:39:43.604Z,-5
2023-02-20T02:40:49.851Z,-7
2023-02-20T02:41:56.126Z,-9
2023-02-20T02:43:02.397Z,-8
2023-02-20T02:44:08.673Z,-9
2023-02-20T02:45:14.949Z,-8
2023-02-20T02:46:21.208Z,-10
2023-02-20T02:47:27.489Z,-8
2023-02-20T02:48:33.765Z,-8
2023-02-20T02:49:39.060Z,-9
2023-02-20T02:50:45.320Z,-8
2023-02-20T02:51:51.591Z,-7
2023-02-20T02:52:57.870Z,-8
2023-02-20T02:54:04.129Z,-3
2023-02-20T02:55:10.411Z,-7
2023-02-20T02:56:16.707Z,-7
2023-02-20T02:57:22.944Z,-7
2023-02-20T02:58:29.222Z,-7
2023-02-20T02:59:35.504Z,-7
2023-02-20T03:00:41.761Z,-4
2023-02-20T03:01:48.049Z,-8
2023-02-20T03:02:54.318Z,-8
2023-02-20T03:03:59.601Z,-8
2023-02-20T03:05:05.868Z,-7
2023-02-20T03:06:12.144Z,-8
2023-02-20T03:07:18.416Z,-9
2023-02-20T03:08:24.691Z,-8
2023-02-20T03:09:29.998Z,-8
2023-02-20T03:10:35.275Z,-7
2023-02-20T03:11:40.579Z,-8
2023-02-20T03:12:45.896Z,-8
2023-02-20T03:13:52.137Z,-8
2023-02-20T03:14:58.442Z,-7
2023-02-20T03:16:04.679Z,-9
2023-02-20T03:17:10.947Z,-9
2023-02-20T03:18:17.224Z,-9
2023-02-20T03:19:23.495Z,-10
2023-02-20T03:20:29.831Z,-9
2023-02-20T03:21:36.039Z,-9
2023-02-20T03:22:42.309Z,-9
2023-02-20T03:23:48.617Z,-9
2023-02-20T03:24:54.859Z,-10
2023-02-20T03:26:01.139Z,-9
2023-02-20T03:27:06.425Z,-10
2023-02-20T03:28:12.693Z,-9
2023-02-20T03:29:19.042Z,-8
2023-02-20T03:30:25.240Z,-10
2023-02-20T03:31:31.506Z,-10
2023-02-20T03:32:37.788Z,-10
2023-02-20T03:33:44.053Z,-10
2023-02-20T03:34:50.329Z,-10
2023-02-20T03:35:56.591Z,-10
2023-02-20T03:37:01.897Z,-10
2023-02-20T03:38:07.188Z,-9
2023-02-20T03:39:12.492Z,-9
2023-02-20T03:40:17.781Z,-9
2023-02-20T03:41:24.040Z,-10
2023-02-20T03:42:30.315Z,-10
2023-02-20T03:43:36.602Z,-10
2023-02-20T03:44:42.874Z,-9
2023-02-20T03:45:49.138Z,-8
2023-02-20T03:46:55.406Z,-8
2023-02-20T03:48:01.679Z,-9
2023-02-20T03:49:07.987Z,-9
2023-02-20T03:50:14.244Z,-8
2023-02-20T03:51:20.513Z,-10
2023-02-20T03:52:26.768Z,-10
2023-02-20T03:53:33.043Z,-10
2023-02-20T03:54:38.349Z,-9
2023-02-20T03:55:44.598Z,-10
2023-02-20T03:56:50.870Z,-9
2023-02-20T03:57:57.155Z,-8
2023-02-20T03:59:03.420Z,-8
2023-02-20T04:00:09.702Z,-9
2023-02-20T04:01:15.969Z,-7
2023-02-20T04:02:21.272Z,-8
2023-02-20T04:03:26.538Z,-8
2023-02-20T04:04:31.846Z,-9
2023-02-20T04:05:37.138Z,-9
2023-02-20T04:06:43.421Z,-9
2023-02-20T04:07:49.681Z,-7
2023-02-20T04:08:55.948Z,-8
2023-02-20T04:10:02.225Z,-9
2023-02-20T04:11:08.501Z,-9
2023-02-20T04:12:14.767Z,-9
2023-02-20T04:13:21.080Z,-9
2023-02-20T04:14:27.341Z,-8
2023-02-20T04:15:33.597Z,-8
2023-02-20T04:16:39.854Z,-7
2023-02-20T04:17:46.140Z,-8
2023-02-20T04:18:52.407Z,-8
2023-02-20T04:19:57.707Z,-6
2023-02-20T04:21:03.958Z,-8
2023-02-20T04:22:10.269Z,-9
2023-02-20T04:23:16.535Z,-7
2023-02-20T04:24:22.787Z,-8
2023-02-20T04:25:29.051Z,-7
2023-02-20T04:26:35.318Z,-7
2023-02-20T04:27:41.593Z,-8
2023-02-20T04:28:46.889Z,-10
2023-02-20T04:29:52.183Z,-9
2023-02-20T04:30:57.478Z,-10
2023-02-20T04:32:02.770Z,-7
2023-02-20T04:33:09.051Z,-8
2023-02-20T04:34:15.322Z,-8
2023-02-20T04:35:21.579Z,-8
2023-02-20T04:36:27.878Z,-10
2023-02-20T04:37:34.123Z,-10
2023-02-20T04:38:40.401Z,-10
2023-02-20T04:39:46.671Z,-9
2023-02-20T04:40:52.944Z,-10
2023-02-20T04:41:59.209Z,-10
2023-02-20T04:43:05.481Z,-8
2023-02-20T04:44:11.758Z,-9
2023-02-20T04:45:18.042Z,-9
2023-02-20T04:46:23.323Z,-7
2023-02-20T04:47:29.589Z,-8
2023-02-20T04:48:35.856Z,-9
2023-02-20T04:49:42.134Z,-8
2023-02-20T04:50:48.400Z,-9
2023-02-20T04:51:54.668Z,-10
2023-02-20T04:53:00.960Z,-10
2023-02-20T04:54:07.213Z,-10
2023-02-20T04:55:13.498Z,-8
2023-02-20T04:56:19.766Z,-10
2023-02-20T04:57:26.032Z,-10
2023-02-20T04:58:32.299Z,-10
2023-02-20T04:59:38.651Z,-10
2023-02-20T05:00:43.920Z,-9
2023-02-20T05:01:50.146Z,-8
2023-02-20T05:02:56.426Z,-9
2023-02-20T05:04:02.696Z,-9
2023-02-20T05:05:08.956Z,-9
2023-02-20T05:06:15.234Z,-10
2023-02-20T05:07:21.502Z,-10
2023-02-20T05:08:27.773Z,-10
2023-02-20T05:09:34.058Z,-10
2023-02-20T05:10:40.322Z,-10
2023-02-20T05:11:46.618Z,-10
2023-02-20T05:12:52.870Z,-10
2023-02-20T05:13:59.142Z,-10
2023-02-20T05:15:04.456Z,-10
2023-02-20T05:16:09.721Z,-10
2023-02-20T05:17:15.027Z,-10
2023-02-20T05:18:20.328Z,-10
2023-02-20T05:19:25.601Z,-10
2023-02-20T05:20:31.879Z,-10
2023-02-20T05:21:38.153Z,-10
2023-02-20T05:22:44.446Z,-10
2023-02-20T05:23:50.722Z,-10
2023-02-20T05:24:56.968Z,-10
2023-02-20T05:26:03.229Z,-10
2023-02-20T05:27:09.507Z,-10
2023-02-20T05:28:15.800Z,-10
2023-02-20T05:29:22.093Z,-10
2023-02-20T05:30:28.332Z,-10
2023-02-20T05:31:34.616Z,-10
2023-02-20T05:32:40.879Z,-10
2023-02-20T05:33:46.168Z,-10
2023-02-20T05:34:52.437Z,-10
2023-02-20T05:35:58.724Z,-10
2023-02-20T05:37:04.972Z,-10
2023-02-20T05:38:11.253Z,-8
2023-02-20T05:39:17.521Z,-10
2023-02-20T05:40:23.797Z,-10
2023-02-20T05:41:30.063Z,-10
2023-02-20T05:42:36.336Z,-10
2023-02-20T05:43:42.608Z,-9
2023-02-20T05:44:48.889Z,-10
2023-02-20T05:45:55.182Z,-9
2023-02-20T05:47:01.445Z,-9
2023-02-20T05:48:06.713Z,-9
2023-02-20T05:49:12.019Z,-10
2023-02-20T05:50:17.310Z,-10
2023-02-20T05:51:23.620Z,-9
2023-02-20T05:52:28.887Z,-7
2023-02-20T05:53:34.162Z,-9
2023-02-20T05:54:40.435Z,-8
2023-02-20T05:55:46.708Z,-7
2023-02-20T05:56:52.978Z,-7
2023-02-20T05:57:59.269Z,-8
2023-02-20T05:59:05.532Z,-7
2023-02-20T06:00:11.794Z,-7
2023-02-20T06:01:18.076Z,-9
2023-02-20T06:02:24.355Z,-10
2023-02-20T06:03:30.609Z,-9
2023-02-20T06:04:36.901Z,-9
2023-02-20T06:05:43.160Z,-9
2023-02-20T06:06:49.436Z,-10
2023-02-20T06:07:54.717Z,-9
2023-02-20T06:09:00.998Z,-8
2023-02-20T06:10:07.282Z,-7
2023-02-20T06:11:13.556Z,-6
2023-02-20T06:12:19.829Z,-3
2023-02-20T06:13:26.074Z,-4
2023-02-20T06:14:32.347Z,-9
2023-02-20T06:15:37.651Z,-7
2023-02-20T06:16:43.923Z,-9
2023-02-20T06:17:49.223Z,-9
2023-02-20T06:18:54.513Z,-10
2023-02-20T06:20:00.787Z,-9
2023-02-20T06:21:07.057Z,-9
2023-02-20T06:22:13.342Z,-9
2023-02-20T06:23:19.592Z,-8
2023-02-20T06:24:25.903Z,-9
2023-02-20T06:25:32.148Z,-9
2023-02-20T06:26:38.413Z,-9
2023-02-20T06:27:44.693Z,-9
2023-02-20T06:28:50.986Z,-7
2023-02-20T06:29:57.236Z,-7
2023-02-20T06:31:03.494Z,-4
2023-02-20T06:32:09.788Z,-7
2023-02-20T06:33:15.071Z,-7
2023-02-20T06:34:21.364Z,-8
2023-02-20T06:35:27.620Z,-7
2023-02-20T06:36:33.892Z,-6
2023-02-20T06:37:40.163Z,-7
2023-02-20T06:38:46.430Z,-8
2023-02-20T06:39:52.705Z,-7
2023-02-20T06:40:58.975Z,-7
2023-02-20T06:42:05.261Z,-7
2023-02-20T06:43:11.537Z,-7
2023-02-20T06:44:17.795Z,-4
2023-02-20T06:45:23.094Z,-7
2023-02-20T06:46:28.423Z,-9
2023-02-20T06:47:33.683Z,-9
2023-02-20T06:48:38.973Z,-9
2023-02-20T06:49:45.245Z,-7
2023-02-20T06:50:51.551Z,-8
2023-02-20T06:51:57.797Z,-8
2023-02-20T06:53:04.109Z,-9
2023-02-20T06:54:10.374Z,-9
2023-02-20T06:55:16.600Z,-9
2023-02-20T06:56:22.896Z,-7
2023-02-20T06:57:29.177Z,-7
2023-02-20T06:58:35.419Z,-3
2023-02-20T06:59:41.692Z,-4
2023-02-20T07:00:47.964Z,-2
2023-02-20T07:01:54.248Z,-1
2023-02-20T07:02:59.549Z,-6
2023-02-20T07:04:05.796Z,-4
2023-02-20T07:05:12.068Z,-4
2023-02-20T07:06:18.357Z,-5
2023-02-20T07:07:24.652Z,-6
2023-02-20T07:08:30.888Z,-3
2023-02-20T07:09:37.220Z,-2
2023-02-20T07:10:42.454Z,0
2023-02-20T07:11:47.820Z,-2
2023-02-20T07:12:53.044Z,-3
2023-02-20T07:13:58.377Z,-7
2023-02-20T07:15:04.607Z,-5
2023-02-20T07:16:10.878Z,-6
2023-02-20T07:17:17.228Z,-7
2023-02-20T07:18:23.421Z,-8
2023-02-20T07:19:29.686Z,-6
2023-02-20T07:20:35.970Z,-6
2023-02-20T07:21:42.236Z,-8
2023-02-20T07:22:48.515Z,-8
2023-02-20T07:23:54.792Z,-8
2023-02-20T07:25:01.081Z,-7
2023-02-20T07:26:07.327Z,-7
2023-02-20T07:27:13.619Z,-8
2023-02-20T07:28:18.878Z,-9
2023-02-20T07:29:25.149Z,-7
2023-02-20T07:30:31.423Z,-8
2023-02-20T07:31:37.746Z,-5
2023-02-20T07:32:44.030Z,-7
2023-02-20T07:33:50.242Z,-7
2023-02-20T07:34:56.511Z,-5
2023-02-20T07:36:01.810Z,-8
2023-02-20T07:37:07.095Z,-8
2023-02-20T07:38:13.468Z,-5
2023-02-20T07:39:19.652Z,-7
2023-02-20T07:40:26.003Z,-6
2023-02-20T07:41:32.207Z,-5
2023-02-20T07:42:38.512Z,-8
2023-02-20T07:43:44.743Z,-7
2023-02-20T07:44:51.014Z,-7
2023-02-20T07:45:57.274Z,-8
2023-02-20T07:47:03.553Z,-9
2023-02-20T07:48:09.819Z,-9
2023-02-20T07:49:16.118Z,-9
2023-02-20T07:50:22.378Z,-9
2023-02-20T07:51:27.751Z,-7
2023-02-20T07:52:33.930Z,-7
2023-02-20T07:53:39.281Z,-10
2023-02-20T07:54:44.567Z,-8
2023-02-20T07:55:50.783Z,-8
2023-02-20T07:56:57.134Z,-7
2023-02-20T07:58:03.334Z,-6
2023-02-20T07:59:09.613Z,-7
2023-02-20T08:00:15.879Z,-7
2023-02-20T08:01:22.220Z,-5
2023-02-20T08:02:28.429Z,-8
2023-02-20T08:03:34.792Z,-7
2023-02-20T08:04:40.971Z,-7
2023-02-20T08:05:47.230Z,-9
2023-02-20T08:06:53.508Z,-6
2023-02-20T08:07:59.849Z,-8
2023-02-20T08:09:05.067Z,-8
2023-02-20T08:10:11.337Z,-9
2023-02-20T08:11:17.607Z,-9
2023-02-20T08:12:23.891Z,-7
2023-02-20T08:13:30.155Z,-9
2023-02-20T08:14:36.475Z,-8
2023-02-20T08:15:42.707Z,-9
2023-02-20T08:16:48.973Z,-9
2023-02-20T08:17:55.244Z,-9
2023-02-20T08:19:01.533Z,-8
2023-02-20T08:20:07.785Z,-9
2023-02-20T08:21:14.056Z,-7
2023-02-20T08:22:20.335Z,-7
2023-02-20T08:23:25.622Z,-9
2023-02-20T08:24:32.055Z,-9
2023-02-20T08:25:38.351Z,-9
2023-02-20T08:26:44.446Z,-6
2023-02-20T08:27:50.765Z,-7
2023-02-20T08:28:56.982Z,-7
2023-02-20T08:30:03.262Z,-9
2023-02-20T08:31:09.521Z,-8
2023-02-20T08:32:15.799Z,-8
2023-02-20T08:33:22.116Z,-9
2023-02-20T08:34:28.416Z,-10
2023-02-20T08:35:34.618Z,-9
2023-02-20T08:36:40.944Z,-8
2023-02-20T08:37:46.175Z,-7
2023-02-20T08:38:52.453Z,-7
2023-02-20T08:39:58.776Z,-8
2023-02-20T08:41:04.985Z,-8
2023-02-20T08:42:11.307Z,-9
2023-02-20T08:43:17.654Z,-8
2023-02-20T08:44:23.887Z,-6
2023-02-20T08:45:30.079Z,-7
2023-02-20T08:46:36.354Z,-9
2023-02-20T08:47:42.626Z,-8
2023-02-20T08:48:48.904Z,-9
2023-02-20T08:49:55.167Z,-7
2023-02-20T08:51:01.461Z,-9
2023-02-20T08:52:07.718Z,-7
2023-02-20T08:53:13.977Z,-9
2023-02-20T08:54:19.264Z,-9
2023-02-20T08:55:25.544Z,-6
2023-02-20T08:56:31.810Z,-8
2023-02-20T08:57:38.083Z,-9
2023-02-20T08:58:43.382Z,-9
2023-02-20T08:59:49.696Z,-8
2023-02-20T09:00:55.919Z,-9
2023-02-20T09:02:02.224Z,-9
2023-02-20T09:03:08.467Z,-10
2023-02-20T09:04:14.742Z,-7
2023-02-20T09:05:21.015Z,-8
2023-02-20T09:06:27.277Z,-10
2023-02-20T09:07:33.564Z,-10
2023-02-20T09:08:39.825Z,-10
2023-02-20T09:09:46.092Z,-9
2023-02-20T09:10:52.367Z,-10
2023-02-20T09:11:58.634Z,-10
2023-02-20T09:13:03.936Z,-10
2023-02-20T09:14:10.196Z,-10
2023-02-20T09:15:16.480Z,-10
2023-02-20T09:16:21.781Z,-10
2023-02-20T09:17:27.072Z,-10
2023-02-20T09:18:33.333Z,-10
2023-02-20T09:19:39.680Z,-10
2023-02-20T09:20:45.917Z,-9
2023-02-20T09:21:51.201Z,-9
2023-02-20T09:22:56.463Z,-10
2023-02-20T09:24:02.733Z,-9
2023-02-20T09:25:09.016Z,-10
2023-02-20T09:26:15.449Z,-10
2023-02-20T09:27:21.597Z,-10
2023-02-20T09:28:27.962Z,-10
2023-02-20T09:29:34.311Z,-10
2023-02-20T09:30:40.553Z,-7
2023-02-20T09:31:46.644Z,-10
2023-02-20T09:32:52.913Z,-10
2023-02-20T09:33:59.183Z,-9
2023-02-20T09:35:05.460Z,-10
2023-02-20T09:36:11.732Z,-10
2023-02-20T09:37:17.014Z,-10
2023-02-20T09:38:23.296Z,-10
2023-02-20T09:39:29.568Z,-10
2023-02-20T09:40:35.842Z,-10
2023-02-20T09:41:42.108Z,-10
2023-02-20T09:42:48.382Z,-10
2023-02-20T09:43:54.647Z,-10
2023-02-20T09:45:00.927Z,-10
2023-02-20T09:46:07.197Z,-10
2023-02-20T09:47:13.466Z,-10
2023-02-20T09:48:19.746Z,-10
2023-02-20T09:49:26.018Z,-10
2023-02-20T09:50:32.293Z,-10
2023-02-20T09:51:37.574Z,-10
2023-02-20T09:52:43.852Z,-10
2023-02-20T09:53:50.148Z,-10
2023-02-20T09:54:56.396Z,-10
2023-02-20T09:56:02.674Z,-10
2023-02-20T09:57:08.932Z,-10
2023-02-20T09:58:15.232Z,-10
2023-02-20T09:59:21.481Z,-10
2023-02-20T10:00:27.744Z,-10
2023-02-20T10:01:34.025Z,-10
2023-02-20T10:02:40.296Z,-10
2023-02-20T10:03:46.617Z,-10
2023-02-20T10:04:52.879Z,-10
2023-02-20T10:05:58.127Z,-10
2023-02-20T10:07:03.513Z,-10
2023-02-20T10:08:08.733Z,-10
2023-02-20T10:09:15.181Z,-10
2023-02-20T10:10:21.326Z,-10
2023-02-20T10:11:26.744Z,-10
2023-02-20T10:12:31.856Z,-10
2023-02-20T10:13:38.123Z,-10
2023-02-20T10:14:44.392Z,-10
2023-02-20T10:15:50.661Z,-10
2023-02-20T10:16:56.929Z,-10
2023-02-20T10:18:03.213Z,-10
2023-02-20T10:19:09.478Z,-10
2023-02-20T10:20:15.751Z,-10
2023-02-20T10:21:22.026Z,-10
2023-02-20T10:22:28.296Z,-10
2023-02-20T10:23:34.569Z,-10
2023-02-20T10:24:40.836Z,-10
2023-02-20T10:25:47.158Z,-10
2023-02-20T10:26:52.423Z,-10
2023-02-20T10:27:58.677Z,-10
2023-02-20T10:29:04.948Z,-10
2023-02-20T10:30:11.222Z,-10
2023-02-20T10:31:17.486Z,-10
2023-02-20T10:32:23.765Z,-10
2023-02-20T10:33:30.045Z,-10
2023-02-20T10:34:36.314Z,-10
2023-02-20T10:35:42.581Z,-10
2023-02-20T10:36:48.854Z,-10
2023-02-20T10:37:55.135Z,-10
2023-02-20T10:39:01.543Z,-10
2023-02-20T10:40:07.671Z,-10
2023-02-20T10:41:12.976Z,-10
2023-02-20T10:42:19.238Z,-10
2023-02-20T10:43:25.502Z,-10
2023-02-20T10:44:31.771Z,-10
2023-02-20T10:45:38.058Z,-10
2023-02-20T10:46:44.323Z,-10
2023-02-20T10:47:50.588Z,-9
2023-02-20T10:48:56.859Z,-10
2023-02-20T10:50:03.143Z,-10
2023-02-20T10:51:09.414Z,-10
2023-02-20T10:52:15.691Z,-10
2023-02-20T10:53:22.029Z,-10
2023-02-20T10:54:28.223Z,-10
2023-02-20T10:55:33.515Z,-10
2023-02-20T10:56:39.945Z,-10
2023-02-20T10:57:46.051Z,-10
2023-02-20T10:58:52.321Z,-10
2023-02-20T10:59:58.600Z,-10
2023-02-20T11:01:04.867Z,-10
2023-02-20T11:02:11.167Z,-10
2023-02-20T11:03:16.563Z,-10
2023-02-20T11:04:21.718Z,-10
2023-02-20T11:05:27.022Z,-10
2023-02-20T11:06:32.310Z,-10
2023-02-20T11:07:38.587Z,-10
2023-02-20T11:08:44.904Z,-10
2023-02-20T11:09:51.124Z,-10
2023-02-20T11:10:57.388Z,-10
2023-02-20T11:12:03.692Z,-10
2023-02-20T11:13:09.948Z,-10
2023-02-20T11:14:16.206Z,-10
2023-02-20T11:15:22.525Z,-10
2023-02-20T11:16:28.857Z,-10
2023-02-20T11:17:35.134Z,-10
2023-02-20T11:18:41.445Z,-10
2023-02-20T11:19:47.721Z,-10
2023-02-20T11:20:52.857Z,-10
2023-02-20T11:21:59.123Z,-10
2023-02-20T11:23:05.395Z,-10
2023-02-20T11:24:11.674Z,-10
2023-02-20T11:25:17.945Z,-10
2023-02-20T11:26:24.219Z,-10
2023-02-20T11:27:30.498Z,-10
2023-02-20T11:28:35.792Z,-10
2023-02-20T11:29:41.085Z,-10
2023-02-20T11:30:46.390Z,-10
2023-02-20T11:31:51.675Z,-10
2023-02-20T11:32:57.961Z,-10
2023-02-20T11:34:04.213Z,-10
2023-02-20T11:35:10.485Z,-10
2023-02-20T11:36:16.776Z,-10
2023-02-20T11:37:23.032Z,-10
2023-02-20T11:38:29.306Z,-10
2023-02-20T11:39:35.575Z,-10
2023-02-20T11:40:41.850Z,-8
2023-02-20T11:41:48.125Z,-10
2023-02-20T11:42:54.398Z,-10
2023-02-20T11:44:00.671Z,-10
2023-02-20T11:45:06.942Z,-10
2023-02-20T11:46:13.211Z,-10
2023-02-20T11:47:19.492Z,-10
2023-02-20T11:48:24.776Z,-10
2023-02-20T11:49:31.063Z,-9
2023-02-20T11:50:37.321Z,-10
2023-02-20T11:51:43.590Z,-9
2023-02-20T11:52:49.867Z,-10
2023-02-20T11:53:56.149Z,-10
2023-02-20T11:55:02.410Z,-10
2023-02-20T11:56:08.667Z,-10
2023-02-20T11:58:21.233Z,-10
2023-02-20T11:59:27.493Z,-10
2023-02-20T12:00:33.785Z,-9
2023-02-20T12:01:40.041Z,-9
2023-02-20T12:02:45.319Z,-9
2023-02-20T12:03:51.597Z,-8
2023-02-20T12:04:57.865Z,-8
2023-02-20T12:06:04.135Z,-9
2023-02-20T12:07:10.418Z,-9
2023-02-20T12:08:16.683Z,-9
2023-02-20T12:09:22.957Z,-9
2023-02-20T12:10:29.222Z,-8
2023-02-20T12:11:35.495Z,-10
2023-02-20T12:12:41.774Z,-9
2023-02-20T12:13:48.035Z,-10
2023-02-20T12:14:53.347Z,-9
2023-02-20T12:15:59.609Z,-10
2023-02-20T12:17:04.926Z,-10
2023-02-20T12:18:10.193Z,-9
2023-02-20T12:19:16.465Z,-9
2023-02-20T12:20:22.767Z,-10
2023-02-20T12:22:35.290Z,-10
2023-02-20T12:23:41.546Z,-10
2023-02-20T12:24:47.839Z,-10
2023-02-20T12:25:54.100Z,-10
2023-02-20T12:27:00.365Z,-10
2023-02-20T12:28:06.639Z,-10
2023-02-20T12:29:12.914Z,-10
2023-02-20T12:30:19.189Z,-10
2023-02-20T12:31:25.461Z,-10
2023-02-20T12:32:30.744Z,-10
2023-02-20T12:33:37.021Z,-10
2023-02-20T12:34:43.401Z,-10
2023-02-20T12:35:49.632Z,-10
2023-02-20T12:36:55.835Z,-10
2023-02-20T12:38:02.234Z,-10
2023-02-20T12:39:08.379Z,-10
2023-02-20T12:40:13.668Z,-10
2023-02-20T12:41:18.966Z,-10
2023-02-20T12:42:24.285Z,-10
2023-02-20T12:43:29.563Z,-10
2023-02-20T12:44:34.844Z,-10
2023-02-20T12:45:41.117Z,-10
2023-02-20T12:46:47.382Z,-10
2023-02-20T12:47:53.676Z,-10
2023-02-20T12:48:59.960Z,-8
2023-02-20T12:50:06.188Z,-8
2023-02-20T12:51:12.489Z,-10
2023-02-20T12:52:18.747Z,-10
2023-02-20T12:53:25.018Z,-9
2023-02-20T12:54:31.291Z,-9
2023-02-20T12:55:37.559Z,-10
2023-02-20T12:56:43.842Z,-9
2023-02-20T12:57:50.113Z,-8
2023-02-20T12:58:55.396Z,-9
2023-02-20T13:00:01.663Z,-9
2023-02-20T13:01:07.928Z,-9
2023-02-20T13:02:14.204Z,-9
2023-02-20T13:03:20.481Z,-10
2023-02-20T13:04:26.748Z,-10
2023-02-20T13:05:33.035Z,-10
2023-02-20T13:06:38.318Z,-10
2023-02-20T13:07:43.617Z,-10
2023-02-20T13:08:48.931Z,-10
2023-02-20T13:09:54.225Z,-10
2023-02-20T13:11:00.490Z,-10
2023-02-20T13:12:06.738Z,-10
2023-02-20T13:13:13.011Z,-10
2023-02-20T13:14:19.357Z,-10
2023-02-20T13:15:25.573Z,-10
2023-02-20T13:16:31.824Z,-10
2023-02-20T13:17:38.103Z,-10
2023-02-20T13:18:44.381Z,-10
2023-02-20T13:19:50.650Z,-10
2023-02-20T13:20:56.930Z,-10
2023-02-20T13:22:03.187Z,-10
2023-02-20T13:23:09.448Z,-10
2023-02-20T13:24:14.741Z,-10
2023-02-20T13:25:21.014Z,-10
2023-02-20T13:26:27.291Z,-10
2023-02-20T13:27:33.568Z,-10
2023-02-20T13:28:39.831Z,-10
2023-02-20T13:29:46.222Z,-10
2023-02-20T13:30:52.388Z,-10
2023-02-20T13:31:57.727Z,-10
2023-02-20T13:33:02.962Z,-10
2023-02-20T13:34:09.235Z,-10
2023-02-20T13:35:15.505Z,-10
2023-02-20T13:36:21.774Z,-10
2023-02-20T13:37:28.050Z,-10
2023-02-20T13:38:33.359Z,-10
2023-02-20T13:39:39.625Z,-10
2023-02-20T13:40:44.963Z,-10
2023-02-20T13:41:51.184Z,-10
2023-02-20T13:42:57.456Z,-10
2023-02-20T13:44:03.731Z,-10
2023-02-20T13:45:10.014Z,-10
2023-02-20T13:46:16.271Z,-9
2023-02-20T13:47:22.544Z,-9
2023-02-20T13:48:28.803Z,-10
2023-02-20T13:49:35.073Z,-10
2023-02-20T13:50:41.372Z,-10
2023-02-20T13:51:47.614Z,-10
2023-02-20T13:52:53.895Z,-10
2023-02-20T13:54:00.167Z,-10
2023-02-20T13:55:05.452Z,-10
2023-02-20T13:56:11.726Z,-10
2023-02-20T13:57:18.001Z,-10
2023-02-20T13:58:24.336Z,-10
2023-02-20T13:59:30.605Z,-10
2023-02-20T14:00:36.812Z,-10
2023-02-20T14:01:42.129Z,-10
2023-02-20T14:02:47.396Z,-10
2023-02-20T14:03:53.674Z,-10
2023-02-20T14:04:59.986Z,-10
2023-02-20T14:06:06.228Z,-10
2023-02-20T14:07:12.484Z,-10
2023-02-20T14:08:18.750Z,-10
2023-02-20T14:09:25.032Z,-10
2023-02-20T14:10:31.308Z,-10
2023-02-20T14:11:37.576Z,-10
2023-02-20T14:12:43.848Z,-10
2023-02-20T14:13:50.143Z,-10
2023-02-20T14:14:56.387Z,-10
2023-02-20T14:16:02.674Z,-10
2023-02-20T14:17:08.031Z,-10
2023-02-20T14:18:14.223Z,-10
2023-02-20T14:19:20.617Z,-10
2023-02-20T14:20:26.786Z,-10
2023-02-20T14:21:33.215Z,-10
2023-02-20T14:22:39.426Z,-10
2023-02-20T14:23:45.580Z,-10
2023-02-20T14:24:50.878Z,-10
2023-02-20T14:25:56.169Z,-10
2023-02-20T14:27:01.559Z,-10
2023-02-20T14:28:06.756Z,-10
2023-02-20T14:29:13.021Z,-10
2023-02-20T14:30:19.334Z,-10
2023-02-20T14:31:25.570Z,-9
2023-02-20T14:32:31.838Z,-10
2023-02-20T14:33:38.109Z,-10
2023-02-20T14:34:44.384Z,-10
2023-02-20T14:35:50.647Z,-10
2023-02-20T14:36:56.921Z,-10
2023-02-20T14:38:03.290Z,-10
2023-02-20T14:39:09.466Z,-10
2023-02-20T14:40:15.753Z,-10
2023-02-20T14:41:22.013Z,-10
2023-02-20T14:42:27.292Z,-10
2023-02-20T14:43:33.569Z,-10
2023-02-20T14:44:39.846Z,-10
2023-02-20T14:45:46.121Z,-10
2023-02-20T14:46:52.386Z,-10
2023-02-20T14:47:58.661Z,-10
2023-02-20T14:49:04.927Z,-10
2023-02-20T14:50:10.250Z,-10
2023-02-20T14:51:15.515Z,-10
2023-02-20T14:52:21.792Z,-10
2023-02-20T14:53:27.093Z,-10
2023-02-20T14:54:32.389Z,-10
2023-02-20T14:55:38.646Z,-10
2023-02-20T14:56:44.912Z,-10
2023-02-20T14:57:51.188Z,-10
2023-02-20T14:58:57.458Z,-10
2023-02-20T15:00:03.720Z,-10
2023-02-20T15:01:10.030Z,-10
2023-02-20T15:02:16.412Z,-10
2023-02-20T15:03:22.619Z,-10
2023-02-20T15:04:28.818Z,-10
2023-02-20T15:05:35.161Z,-10
2023-02-20T15:06:41.362Z,-10
2023-02-20T15:07:47.631Z,-10
2023-02-20T15:08:52.932Z,-10
2023-02-20T15:09:59.183Z,-10
2023-02-20T15:11:05.530Z,-10
2023-02-20T15:12:11.784Z,-10
2023-02-20T15:13:18.007Z,-10
2023-02-20T15:14:24.292Z,-10
2023-02-20T15:15:30.552Z,-10
2023-02-20T15:16:35.849Z,-10
2023-02-20T15:17:41.145Z,-10
2023-02-20T15:18:46.436Z,-10
2023-02-20T15:19:51.721Z,-10
2023-02-20T15:20:57.994Z,-10
2023-02-20T15:22:04.262Z,-10
2023-02-20T15:23:10.535Z,-10
2023-02-20T15:24:16.822Z,-10
2023-02-20T15:25:23.088Z,-10
2023-02-20T15:26:29.364Z,-10
2023-02-20T15:27:35.619Z,-10
2023-02-20T15:28:41.897Z,-10